sensor_id;sensor_type;location;lat;lon;timestamp;P1;durP1;ratioP1;P2;durP2;ratioP2
25982;SDS011;13773;48.868;10.730;2023-05-07T00:00:02;7.10;;;1.97;;
25982;SDS011;13773;48.868;10.730;2023-05-07T00:02:32;2.10;;;1.90;;
25982;SDS011;13773;48.868;10.730;2023-05-07T00:04:58;1.80;;;1.70;;
25982;SDS011;13773;48.868;10.730;2023-05-07T00:07:24;2.67;;;2.00;;
25982;SDS011;13773;48.868;10.730;2023-05-07T00:09:50;2.07;;;1.80;;
25982;SDS011;13773;48.868;10.730;2023-05-07T00:12:15;1.90;;;1.80;;
25982;SDS011;13773;48.868;10.730;2023-05-07T00:14:41;1.90;;;1.77;;
25982;SDS011;13773;48.868;10.730;2023-05-07T00:17:07;2.10;;;1.90;;
25982;SDS011;13773;48.868;10.730;2023-05-07T00:19:32;2.53;;;1.90;;
25982;SDS011;13773;48.868;10.730;2023-05-07T00:21:58;2.47;;;1.90;;
25982;SDS011;13773;48.868;10.730;2023-05-07T00:24:24;3.83;;;1.87;;
25982;SDS011;13773;48.868;10.730;2023-05-07T00:26:50;2.80;;;2.10;;
25982;SDS011;13773;48.868;10.730;2023-05-07T00:29:16;3.50;;;1.93;;
25982;SDS011;13773;48.868;10.730;2023-05-07T00:31:41;2.57;;;1.93;;
25982;SDS011;13773;48.868;10.730;2023-05-07T00:34:07;5.77;;;1.90;;
25982;SDS011;13773;48.868;10.730;2023-05-07T00:36:33;3.93;;;2.80;;
25982;SDS011;13773;48.868;10.730;2023-05-07T00:38:59;2.63;;;2.30;;
25982;SDS011;13773;48.868;10.730;2023-05-07T00:41:26;5.60;;;2.77;;
25982;SDS011;13773;48.868;10.730;2023-05-07T00:43:52;3.10;;;2.80;;
25982;SDS011;13773;48.868;10.730;2023-05-07T00:46:19;4.40;;;3.10;;
25982;SDS011;13773;48.868;10.730;2023-05-07T00:48:46;4.63;;;3.30;;
25982;SDS011;13773;48.868;10.730;2023-05-07T00:51:13;5.17;;;3.77;;
25982;SDS011;13773;48.868;10.730;2023-05-07T00:53:38;4.13;;;3.73;;
25982;SDS011;13773;48.868;10.730;2023-05-07T00:56:04;3.47;;;3.17;;
25982;SDS011;13773;48.868;10.730;2023-05-07T00:58:31;3.83;;;3.07;;
25982;SDS011;13773;48.868;10.730;2023-05-07T01:00:59;4.77;;;2.77;;
25982;SDS011;13773;48.868;10.730;2023-05-07T01:03:25;7.00;;;2.80;;
25982;SDS011;13773;48.868;10.730;2023-05-07T01:05:51;3.63;;;2.83;;
25982;SDS011;13773;48.868;10.730;2023-05-07T01:08:18;4.17;;;2.90;;
25982;SDS011;13773;48.868;10.730;2023-05-07T01:10:45;4.50;;;4.00;;
25982;SDS011;13773;48.868;10.730;2023-05-07T01:13:12;5.13;;;4.63;;
25982;SDS011;13773;48.868;10.730;2023-05-07T01:15:39;4.97;;;4.40;;
25982;SDS011;13773;48.868;10.730;2023-05-07T01:18:06;3.30;;;3.00;;
25982;SDS011;13773;48.868;10.730;2023-05-07T01:20:32;3.80;;;3.07;;
25982;SDS011;13773;48.868;10.730;2023-05-07T01:22:58;3.23;;;2.90;;
25982;SDS011;13773;48.868;10.730;2023-05-07T01:25:26;4.17;;;3.50;;
25982;SDS011;13773;48.868;10.730;2023-05-07T01:27:52;6.07;;;5.47;;
25982;SDS011;13773;48.868;10.730;2023-05-07T01:30:18;6.10;;;5.47;;
25982;SDS011;13773;48.868;10.730;2023-05-07T01:32:51;12.87;;;5.03;;
25982;SDS011;13773;48.868;10.730;2023-05-07T01:35:22;6.17;;;5.00;;
25982;SDS011;13773;48.868;10.730;2023-05-07T01:37:51;3.63;;;2.77;;
25982;SDS011;13773;48.868;10.730;2023-05-07T01:40:18;2.93;;;2.73;;
25982;SDS011;13773;48.868;10.730;2023-05-07T01:42:44;2.53;;;2.30;;
25982;SDS011;13773;48.868;10.730;2023-05-07T01:45:11;2.90;;;2.60;;
25982;SDS011;13773;48.868;10.730;2023-05-07T01:47:37;2.27;;;1.90;;
25982;SDS011;13773;48.868;10.730;2023-05-07T01:50:07;4.60;;;2.37;;
25982;SDS011;13773;48.868;10.730;2023-05-07T01:52:38;4.43;;;2.40;;
25982;SDS011;13773;48.868;10.730;2023-05-07T01:55:04;4.03;;;2.47;;
25982;SDS011;13773;48.868;10.730;2023-05-07T01:57:31;3.57;;;2.23;;
25982;SDS011;13773;48.868;10.730;2023-05-07T01:59:57;3.80;;;2.10;;
25982;SDS011;13773;48.868;10.730;2023-05-07T02:02:22;5.50;;;2.83;;
25982;SDS011;13773;48.868;10.730;2023-05-07T02:04:48;4.17;;;2.73;;
25982;SDS011;13773;48.868;10.730;2023-05-07T02:07:13;3.97;;;2.40;;
25982;SDS011;13773;48.868;10.730;2023-05-07T02:09:39;2.87;;;2.57;;
25982;SDS011;13773;48.868;10.730;2023-05-07T02:12:05;3.13;;;2.27;;
25982;SDS011;13773;48.868;10.730;2023-05-07T02:14:31;3.97;;;2.53;;
25982;SDS011;13773;48.868;10.730;2023-05-07T02:16:56;4.23;;;2.53;;
25982;SDS011;13773;48.868;10.730;2023-05-07T02:19:22;3.30;;;2.50;;
25982;SDS011;13773;48.868;10.730;2023-05-07T02:21:48;2.53;;;2.33;;
25982;SDS011;13773;48.868;10.730;2023-05-07T02:24:13;3.23;;;2.50;;
25982;SDS011;13773;48.868;10.730;2023-05-07T02:26:40;4.23;;;2.50;;
25982;SDS011;13773;48.868;10.730;2023-05-07T02:29:06;3.17;;;2.50;;
25982;SDS011;13773;48.868;10.730;2023-05-07T02:31:32;4.63;;;2.63;;
25982;SDS011;13773;48.868;10.730;2023-05-07T02:33:59;3.63;;;2.50;;
25982;SDS011;13773;48.868;10.730;2023-05-07T02:36:25;4.47;;;2.23;;
25982;SDS011;13773;48.868;10.730;2023-05-07T02:38:51;2.40;;;2.20;;
25982;SDS011;13773;48.868;10.730;2023-05-07T02:41:17;2.60;;;2.40;;
25982;SDS011;13773;48.868;10.730;2023-05-07T02:43:43;2.83;;;2.53;;
25982;SDS011;13773;48.868;10.730;2023-05-07T02:46:09;2.60;;;2.33;;
25982;SDS011;13773;48.868;10.730;2023-05-07T02:48:35;3.93;;;2.90;;
25982;SDS011;13773;48.868;10.730;2023-05-07T02:51:01;3.07;;;2.83;;
25982;SDS011;13773;48.868;10.730;2023-05-07T02:53:27;3.00;;;2.33;;
25982;SDS011;13773;48.868;10.730;2023-05-07T02:55:55;2.60;;;2.40;;
25982;SDS011;13773;48.868;10.730;2023-05-07T02:58:21;3.20;;;2.40;;
25982;SDS011;13773;48.868;10.730;2023-05-07T03:00:47;2.70;;;2.40;;
25982;SDS011;13773;48.868;10.730;2023-05-07T03:03:13;2.90;;;2.20;;
25982;SDS011;13773;48.868;10.730;2023-05-07T03:05:40;3.10;;;2.37;;
25982;SDS011;13773;48.868;10.730;2023-05-07T03:08:06;3.70;;;3.00;;
25982;SDS011;13773;48.868;10.730;2023-05-07T03:10:32;3.47;;;2.60;;
25982;SDS011;13773;48.868;10.730;2023-05-07T03:12:58;2.93;;;2.63;;
25982;SDS011;13773;48.868;10.730;2023-05-07T03:15:24;3.30;;;3.00;;
25982;SDS011;13773;48.868;10.730;2023-05-07T03:17:49;4.90;;;2.87;;
25982;SDS011;13773;48.868;10.730;2023-05-07T03:20:15;3.27;;;2.97;;
25982;SDS011;13773;48.868;10.730;2023-05-07T03:22:41;3.60;;;2.83;;
25982;SDS011;13773;48.868;10.730;2023-05-07T03:25:08;2.87;;;2.67;;
25982;SDS011;13773;48.868;10.730;2023-05-07T03:27:34;3.63;;;3.10;;
25982;SDS011;13773;48.868;10.730;2023-05-07T03:30:00;3.30;;;3.00;;
25982;SDS011;13773;48.868;10.730;2023-05-07T03:32:26;3.67;;;3.37;;
25982;SDS011;13773;48.868;10.730;2023-05-07T03:34:52;5.07;;;4.63;;
25982;SDS011;13773;48.868;10.730;2023-05-07T03:37:18;4.33;;;3.90;;
25982;SDS011;13773;48.868;10.730;2023-05-07T03:39:44;5.93;;;4.10;;
25982;SDS011;13773;48.868;10.730;2023-05-07T03:42:10;5.63;;;3.80;;
25982;SDS011;13773;48.868;10.730;2023-05-07T03:44:35;5.40;;;4.90;;
25982;SDS011;13773;48.868;10.730;2023-05-07T03:47:02;5.80;;;4.63;;
25982;SDS011;13773;48.868;10.730;2023-05-07T03:49:28;6.47;;;5.07;;
25982;SDS011;13773;48.868;10.730;2023-05-07T03:51:53;4.40;;;3.80;;
25982;SDS011;13773;48.868;10.730;2023-05-07T03:54:19;7.53;;;3.30;;
25982;SDS011;13773;48.868;10.730;2023-05-07T03:56:45;5.57;;;3.60;;
25982;SDS011;13773;48.868;10.730;2023-05-07T03:59:11;4.10;;;3.57;;
25982;SDS011;13773;48.868;10.730;2023-05-07T04:01:38;3.57;;;3.27;;
25982;SDS011;13773;48.868;10.730;2023-05-07T04:04:04;3.60;;;3.13;;
25982;SDS011;13773;48.868;10.730;2023-05-07T04:06:30;3.80;;;3.50;;
25982;SDS011;13773;48.868;10.730;2023-05-07T04:08:56;4.87;;;4.23;;
25982;SDS011;13773;48.868;10.730;2023-05-07T04:11:21;4.17;;;3.50;;
25982;SDS011;13773;48.868;10.730;2023-05-07T04:13:47;4.93;;;3.70;;
25982;SDS011;13773;48.868;10.730;2023-05-07T04:16:13;3.50;;;3.20;;
25982;SDS011;13773;48.868;10.730;2023-05-07T04:18:38;4.77;;;3.97;;
25982;SDS011;13773;48.868;10.730;2023-05-07T04:21:04;4.37;;;3.37;;
25982;SDS011;13773;48.868;10.730;2023-05-07T04:23:30;4.13;;;2.90;;
25982;SDS011;13773;48.868;10.730;2023-05-07T04:25:56;5.40;;;2.80;;
25982;SDS011;13773;48.868;10.730;2023-05-07T04:28:22;3.47;;;2.90;;
25982;SDS011;13773;48.868;10.730;2023-05-07T04:30:48;3.43;;;3.13;;
25982;SDS011;13773;48.868;10.730;2023-05-07T04:33:14;3.60;;;3.30;;
25982;SDS011;13773;48.868;10.730;2023-05-07T04:35:43;3.27;;;2.73;;
25982;SDS011;13773;48.868;10.730;2023-05-07T04:38:08;2.50;;;2.30;;
25982;SDS011;13773;48.868;10.730;2023-05-07T04:40:35;2.80;;;2.30;;
25982;SDS011;13773;48.868;10.730;2023-05-07T04:43:01;3.27;;;2.90;;
25982;SDS011;13773;48.868;10.730;2023-05-07T04:45:27;2.90;;;2.53;;
25982;SDS011;13773;48.868;10.730;2023-05-07T04:47:52;3.30;;;3.00;;
25982;SDS011;13773;48.868;10.730;2023-05-07T04:50:18;3.23;;;2.50;;
25982;SDS011;13773;48.868;10.730;2023-05-07T04:52:45;2.90;;;2.60;;
25982;SDS011;13773;48.868;10.730;2023-05-07T04:55:10;3.30;;;2.63;;
25982;SDS011;13773;48.868;10.730;2023-05-07T04:57:36;5.23;;;3.07;;
25982;SDS011;13773;48.868;10.730;2023-05-07T05:00:04;2.80;;;2.60;;
25982;SDS011;13773;48.868;10.730;2023-05-07T05:02:33;3.87;;;2.80;;
25982;SDS011;13773;48.868;10.730;2023-05-07T05:04:58;2.70;;;2.50;;
25982;SDS011;13773;48.868;10.730;2023-05-07T05:07:24;3.00;;;2.33;;
25982;SDS011;13773;48.868;10.730;2023-05-07T05:09:50;3.37;;;3.13;;
25982;SDS011;13773;48.868;10.730;2023-05-07T05:12:16;3.77;;;3.33;;
25982;SDS011;13773;48.868;10.730;2023-05-07T05:14:41;4.67;;;2.80;;
25982;SDS011;13773;48.868;10.730;2023-05-07T05:17:07;3.10;;;2.80;;
25982;SDS011;13773;48.868;10.730;2023-05-07T05:19:33;4.70;;;2.77;;
25982;SDS011;13773;48.868;10.730;2023-05-07T05:21:59;3.03;;;2.50;;
25982;SDS011;13773;48.868;10.730;2023-05-07T05:24:26;4.33;;;3.27;;
25982;SDS011;13773;48.868;10.730;2023-05-07T05:26:53;3.00;;;2.70;;
25982;SDS011;13773;48.868;10.730;2023-05-07T05:29:19;2.20;;;2.00;;
25982;SDS011;13773;48.868;10.730;2023-05-07T05:31:45;2.37;;;2.17;;
25982;SDS011;13773;48.868;10.730;2023-05-07T05:34:10;4.43;;;2.60;;
25982;SDS011;13773;48.868;10.730;2023-05-07T05:36:36;2.50;;;2.30;;
25982;SDS011;13773;48.868;10.730;2023-05-07T05:39:02;2.80;;;2.60;;
25982;SDS011;13773;48.868;10.730;2023-05-07T05:41:27;3.00;;;2.70;;
25982;SDS011;13773;48.868;10.730;2023-05-07T05:43:53;3.40;;;2.60;;
25982;SDS011;13773;48.868;10.730;2023-05-07T05:46:19;4.47;;;2.73;;
25982;SDS011;13773;48.868;10.730;2023-05-07T05:48:44;3.30;;;3.03;;
25982;SDS011;13773;48.868;10.730;2023-05-07T05:51:10;4.60;;;2.77;;
25982;SDS011;13773;48.868;10.730;2023-05-07T05:53:36;3.47;;;2.70;;
25982;SDS011;13773;48.868;10.730;2023-05-07T05:56:02;2.83;;;2.60;;
25982;SDS011;13773;48.868;10.730;2023-05-07T05:58:27;2.87;;;2.40;;
25982;SDS011;13773;48.868;10.730;2023-05-07T06:00:53;3.33;;;2.40;;
25982;SDS011;13773;48.868;10.730;2023-05-07T06:03:19;3.70;;;2.83;;
25982;SDS011;13773;48.868;10.730;2023-05-07T06:05:45;2.90;;;2.53;;
25982;SDS011;13773;48.868;10.730;2023-05-07T06:08:10;3.10;;;2.80;;
25982;SDS011;13773;48.868;10.730;2023-05-07T06:10:37;3.90;;;3.00;;
25982;SDS011;13773;48.868;10.730;2023-05-07T06:13:03;3.30;;;2.57;;
25982;SDS011;13773;48.868;10.730;2023-05-07T06:15:29;3.00;;;2.80;;
25982;SDS011;13773;48.868;10.730;2023-05-07T06:17:55;3.80;;;2.73;;
25982;SDS011;13773;48.868;10.730;2023-05-07T06:20:22;3.60;;;2.83;;
25982;SDS011;13773;48.868;10.730;2023-05-07T06:22:48;3.00;;;2.70;;
25982;SDS011;13773;48.868;10.730;2023-05-07T06:25:14;3.13;;;2.83;;
25982;SDS011;13773;48.868;10.730;2023-05-07T06:27:40;3.17;;;2.83;;
25982;SDS011;13773;48.868;10.730;2023-05-07T06:30:06;3.13;;;2.90;;
25982;SDS011;13773;48.868;10.730;2023-05-07T06:32:32;3.00;;;2.80;;
25982;SDS011;13773;48.868;10.730;2023-05-07T06:34:58;3.10;;;2.77;;
25982;SDS011;13773;48.868;10.730;2023-05-07T06:37:23;3.27;;;2.97;;
25982;SDS011;13773;48.868;10.730;2023-05-07T06:39:49;3.07;;;2.83;;
25982;SDS011;13773;48.868;10.730;2023-05-07T06:42:15;3.47;;;2.70;;
25982;SDS011;13773;48.868;10.730;2023-05-07T06:44:41;3.20;;;3.00;;
25982;SDS011;13773;48.868;10.730;2023-05-07T06:47:06;3.73;;;3.43;;
25982;SDS011;13773;48.868;10.730;2023-05-07T06:49:32;3.50;;;3.20;;
25982;SDS011;13773;48.868;10.730;2023-05-07T06:51:58;5.20;;;3.10;;
25982;SDS011;13773;48.868;10.730;2023-05-07T06:54:24;3.60;;;2.93;;
25982;SDS011;13773;48.868;10.730;2023-05-07T06:56:49;2.88;;;2.67;;
25982;SDS011;13773;48.868;10.730;2023-05-07T06:59:15;3.33;;;3.00;;
25982;SDS011;13773;48.868;10.730;2023-05-07T07:01:41;3.00;;;2.80;;
25982;SDS011;13773;48.868;10.730;2023-05-07T07:04:07;3.00;;;2.70;;
25982;SDS011;13773;48.868;10.730;2023-05-07T07:06:33;2.75;;;2.55;;
25982;SDS011;13773;48.868;10.730;2023-05-07T07:08:59;3.00;;;2.80;;
25982;SDS011;13773;48.868;10.730;2023-05-07T07:11:25;4.07;;;3.00;;
25982;SDS011;13773;48.868;10.730;2023-05-07T07:13:51;2.80;;;2.30;;
25982;SDS011;13773;48.868;10.730;2023-05-07T07:16:19;2.70;;;2.50;;
25982;SDS011;13773;48.868;10.730;2023-05-07T07:18:45;4.07;;;2.53;;
25982;SDS011;13773;48.868;10.730;2023-05-07T07:21:11;3.33;;;2.80;;
25982;SDS011;13773;48.868;10.730;2023-05-07T07:23:37;3.13;;;2.87;;
25982;SDS011;13773;48.868;10.730;2023-05-07T07:26:02;2.87;;;2.67;;
25982;SDS011;13773;48.868;10.730;2023-05-07T07:28:28;2.93;;;2.73;;
25982;SDS011;13773;48.868;10.730;2023-05-07T07:30:54;3.57;;;3.27;;
25982;SDS011;13773;48.868;10.730;2023-05-07T07:33:20;4.30;;;3.30;;
25982;SDS011;13773;48.868;10.730;2023-05-07T07:35:45;3.33;;;3.03;;
25982;SDS011;13773;48.868;10.730;2023-05-07T07:38:11;3.30;;;3.10;;
25982;SDS011;13773;48.868;10.730;2023-05-07T07:40:37;3.43;;;3.00;;
25982;SDS011;13773;48.868;10.730;2023-05-07T07:43:02;3.10;;;2.63;;
25982;SDS011;13773;48.868;10.730;2023-05-07T07:45:28;3.07;;;2.77;;
25982;SDS011;13773;48.868;10.730;2023-05-07T07:47:54;2.93;;;2.70;;
25982;SDS011;13773;48.868;10.730;2023-05-07T07:50:20;3.10;;;2.80;;
25982;SDS011;13773;48.868;10.730;2023-05-07T07:52:45;2.73;;;2.53;;
25982;SDS011;13773;48.868;10.730;2023-05-07T07:55:11;3.47;;;2.60;;
25982;SDS011;13773;48.868;10.730;2023-05-07T07:57:37;2.93;;;2.63;;
25982;SDS011;13773;48.868;10.730;2023-05-07T08:00:03;4.20;;;2.87;;
25982;SDS011;13773;48.868;10.730;2023-05-07T08:02:31;3.13;;;2.40;;
25982;SDS011;13773;48.868;10.730;2023-05-07T08:04:56;2.50;;;2.30;;
25982;SDS011;13773;48.868;10.730;2023-05-07T08:07:22;3.77;;;2.40;;
25982;SDS011;13773;48.868;10.730;2023-05-07T08:09:48;2.60;;;2.40;;
25982;SDS011;13773;48.868;10.730;2023-05-07T08:12:14;2.10;;;2.00;;
25982;SDS011;13773;48.868;10.730;2023-05-07T08:14:40;3.27;;;2.30;;
25982;SDS011;13773;48.868;10.730;2023-05-07T08:17:06;2.63;;;2.43;;
25982;SDS011;13773;48.868;10.730;2023-05-07T08:19:31;2.50;;;2.30;;
25982;SDS011;13773;48.868;10.730;2023-05-07T08:21:57;2.80;;;2.27;;
25982;SDS011;13773;48.868;10.730;2023-05-07T08:24:23;3.00;;;2.70;;
25982;SDS011;13773;48.868;10.730;2023-05-07T08:26:49;3.63;;;2.77;;
25982;SDS011;13773;48.868;10.730;2023-05-07T08:29:15;2.87;;;2.63;;
25982;SDS011;13773;48.868;10.730;2023-05-07T08:31:40;2.73;;;2.50;;
25982;SDS011;13773;48.868;10.730;2023-05-07T08:34:06;3.40;;;2.53;;
25982;SDS011;13773;48.868;10.730;2023-05-07T08:36:32;4.13;;;2.50;;
25982;SDS011;13773;48.868;10.730;2023-05-07T08:38:59;3.57;;;2.70;;
25982;SDS011;13773;48.868;10.730;2023-05-07T08:41:25;3.23;;;2.80;;
25982;SDS011;13773;48.868;10.730;2023-05-07T08:43:51;2.30;;;2.10;;
25982;SDS011;13773;48.868;10.730;2023-05-07T08:46:17;2.40;;;2.20;;
25982;SDS011;13773;48.868;10.730;2023-05-07T08:48:44;2.50;;;2.30;;
25982;SDS011;13773;48.868;10.730;2023-05-07T08:51:13;3.47;;;2.90;;
25982;SDS011;13773;48.868;10.730;2023-05-07T08:53:41;3.80;;;2.63;;
25982;SDS011;13773;48.868;10.730;2023-05-07T08:56:08;3.40;;;2.50;;
25982;SDS011;13773;48.868;10.730;2023-05-07T08:58:34;4.37;;;2.40;;
25982;SDS011;13773;48.868;10.730;2023-05-07T09:01:07;2.57;;;2.20;;
25982;SDS011;13773;48.868;10.730;2023-05-07T09:03:34;2.60;;;2.40;;
25982;SDS011;13773;48.868;10.730;2023-05-07T09:06:02;2.37;;;2.07;;
25982;SDS011;13773;48.868;10.730;2023-05-07T09:08:28;2.63;;;2.00;;
25982;SDS011;13773;48.868;10.730;2023-05-07T09:10:53;1.90;;;1.80;;
25982;SDS011;13773;48.868;10.730;2023-05-07T09:13:19;1.50;;;1.40;;
25982;SDS011;13773;48.868;10.730;2023-05-07T09:15:45;2.03;;;1.70;;
25982;SDS011;13773;48.868;10.730;2023-05-07T09:18:14;2.03;;;1.87;;
25982;SDS011;13773;48.868;10.730;2023-05-07T09:20:40;2.03;;;1.93;;
25982;SDS011;13773;48.868;10.730;2023-05-07T09:23:06;2.53;;;2.33;;
25982;SDS011;13773;48.868;10.730;2023-05-07T09:25:33;3.83;;;2.33;;
25982;SDS011;13773;48.868;10.730;2023-05-07T09:28:00;2.23;;;2.03;;
25982;SDS011;13773;48.868;10.730;2023-05-07T09:30:27;3.40;;;2.27;;
25982;SDS011;13773;48.868;10.730;2023-05-07T09:32:57;2.50;;;2.13;;
25982;SDS011;13773;48.868;10.730;2023-05-07T09:35:24;2.50;;;2.30;;
25982;SDS011;13773;48.868;10.730;2023-05-07T09:37:55;2.40;;;2.20;;
25982;SDS011;13773;48.868;10.730;2023-05-07T09:40:29;2.23;;;2.03;;
25982;SDS011;13773;48.868;10.730;2023-05-07T09:42:56;3.87;;;2.67;;
25982;SDS011;13773;48.868;10.730;2023-05-07T09:45:30;2.57;;;2.10;;
25982;SDS011;13773;48.868;10.730;2023-05-07T09:47:58;3.43;;;1.90;;
25982;SDS011;13773;48.868;10.730;2023-05-07T09:50:27;3.03;;;1.90;;
25982;SDS011;13773;48.868;10.730;2023-05-07T09:52:55;2.30;;;2.10;;
25982;SDS011;13773;48.868;10.730;2023-05-07T09:55:22;2.53;;;1.97;;
25982;SDS011;13773;48.868;10.730;2023-05-07T09:57:50;2.20;;;2.10;;
25982;SDS011;13773;48.868;10.730;2023-05-07T10:00:18;1.60;;;1.50;;
25982;SDS011;13773;48.868;10.730;2023-05-07T10:02:46;2.20;;;2.00;;
25982;SDS011;13773;48.868;10.730;2023-05-07T10:05:14;4.23;;;2.13;;
25982;SDS011;13773;48.868;10.730;2023-05-07T10:07:40;2.53;;;2.10;;
25982;SDS011;13773;48.868;10.730;2023-05-07T10:10:06;2.43;;;2.23;;
25982;SDS011;13773;48.868;10.730;2023-05-07T10:12:32;2.90;;;2.10;;
25982;SDS011;13773;48.868;10.730;2023-05-07T10:15:06;2.20;;;2.00;;
25982;SDS011;13773;48.868;10.730;2023-05-07T10:17:36;1.90;;;1.70;;
25982;SDS011;13773;48.868;10.730;2023-05-07T10:20:03;2.90;;;2.13;;
25982;SDS011;13773;48.868;10.730;2023-05-07T10:22:31;1.77;;;1.67;;
25982;SDS011;13773;48.868;10.730;2023-05-07T10:25:03;2.43;;;1.90;;
25982;SDS011;13773;48.868;10.730;2023-05-07T10:27:39;2.33;;;2.00;;
25982;SDS011;13773;48.868;10.730;2023-05-07T10:33:03;2.33;;;1.80;;
25982;SDS011;13773;48.868;10.730;2023-05-07T10:35:32;2.30;;;2.10;;
25982;SDS011;13773;48.868;10.730;2023-05-07T10:38:05;2.13;;;2.03;;
25982;SDS011;13773;48.868;10.730;2023-05-07T10:40:32;2.13;;;1.80;;
25982;SDS011;13773;48.868;10.730;2023-05-07T10:43:02;3.57;;;2.17;;
25982;SDS011;13773;48.868;10.730;2023-05-07T10:45:31;3.33;;;2.53;;
25982;SDS011;13773;48.868;10.730;2023-05-07T10:48:05;2.40;;;2.10;;
25982;SDS011;13773;48.868;10.730;2023-05-07T10:50:34;2.40;;;2.00;;
25982;SDS011;13773;48.868;10.730;2023-05-07T10:53:43;3.60;;;2.33;;
25982;SDS011;13773;48.868;10.730;2023-05-07T10:58:43;2.50;;;2.30;;
25982;SDS011;13773;48.868;10.730;2023-05-07T11:01:09;6.83;;;2.50;;
25982;SDS011;13773;48.868;10.730;2023-05-07T11:03:37;1.93;;;1.83;;
25982;SDS011;13773;48.868;10.730;2023-05-07T11:06:43;2.25;;;2.08;;
25982;SDS011;13773;48.868;10.730;2023-05-07T11:10:15;2.00;;;1.80;;
25982;SDS011;13773;48.868;10.730;2023-05-07T11:12:16;2.15;;;1.55;;
25982;SDS011;13773;48.868;10.730;2023-05-07T11:15:11;2.10;;;1.83;;
25982;SDS011;13773;48.868;10.730;2023-05-07T11:17:59;1.80;;;1.70;;
25982;SDS011;13773;48.868;10.730;2023-05-07T11:26:06;1.70;;;1.60;;
25982;SDS011;13773;48.868;10.730;2023-05-07T11:28:40;2.10;;;1.90;;
25982;SDS011;13773;48.868;10.730;2023-05-07T11:31:07;2.13;;;1.90;;
25982;SDS011;13773;48.868;10.730;2023-05-07T11:33:33;2.00;;;1.70;;
25982;SDS011;13773;48.868;10.730;2023-05-07T11:36:00;2.00;;;1.80;;
25982;SDS011;13773;48.868;10.730;2023-05-07T11:38:28;2.20;;;2.00;;
25982;SDS011;13773;48.868;10.730;2023-05-07T11:41:00;2.30;;;1.65;;
25982;SDS011;13773;48.868;10.730;2023-05-07T11:43:27;2.75;;;1.50;;
25982;SDS011;13773;48.868;10.730;2023-05-07T11:45:53;2.07;;;1.43;;
25982;SDS011;13773;48.868;10.730;2023-05-07T11:48:20;2.13;;;1.50;;
25982;SDS011;13773;48.868;10.730;2023-05-07T11:53:27;2.47;;;1.70;;
25982;SDS011;13773;48.868;10.730;2023-05-07T11:55:59;1.92;;;1.65;;
25982;SDS011;13773;48.868;10.730;2023-05-07T11:58:25;3.22;;;2.05;;
25982;SDS011;13773;48.868;10.730;2023-05-07T12:00:51;1.85;;;1.73;;
25982;SDS011;13773;48.868;10.730;2023-05-07T12:03:18;2.00;;;1.85;;
25982;SDS011;13773;48.868;10.730;2023-05-07T12:05:45;2.10;;;1.90;;
25982;SDS011;13773;48.868;10.730;2023-05-07T12:08:17;2.17;;;1.60;;
25982;SDS011;13773;48.868;10.730;2023-05-07T12:10:45;1.98;;;1.83;;
25982;SDS011;13773;48.868;10.730;2023-05-07T12:15:42;2.33;;;2.13;;
25982;SDS011;13773;48.868;10.730;2023-05-07T12:18:08;2.05;;;1.52;;
25982;SDS011;13773;48.868;10.730;2023-05-07T12:20:35;2.22;;;1.73;;
25982;SDS011;13773;48.868;10.730;2023-05-07T12:23:01;2.08;;;1.65;;
25982;SDS011;13773;48.868;10.730;2023-05-07T12:25:37;3.13;;;2.13;;
25982;SDS011;13773;48.868;10.730;2023-05-07T12:28:03;1.70;;;1.60;;
25982;SDS011;13773;48.868;10.730;2023-05-07T12:30:38;1.73;;;1.50;;
25982;SDS011;13773;48.868;10.730;2023-05-07T12:33:05;1.60;;;1.50;;
25982;SDS011;13773;48.868;10.730;2023-05-07T12:35:32;1.85;;;1.75;;
25982;SDS011;13773;48.868;10.730;2023-05-07T12:38:01;1.65;;;1.52;;
25982;SDS011;13773;48.868;10.730;2023-05-07T12:40:42;1.63;;;1.50;;
25982;SDS011;13773;48.868;10.730;2023-05-07T12:43:26;1.92;;;1.67;;
25982;SDS011;13773;48.868;10.730;2023-05-07T12:45:54;1.73;;;1.58;;
25982;SDS011;13773;48.868;10.730;2023-05-07T12:48:22;1.58;;;1.48;;
25982;SDS011;13773;48.868;10.730;2023-05-07T12:50:51;1.80;;;1.70;;
25982;SDS011;13773;48.868;10.730;2023-05-07T12:53:20;1.70;;;1.60;;
25982;SDS011;13773;48.868;10.730;2023-05-07T12:55:48;1.92;;;1.73;;
25982;SDS011;13773;48.868;10.730;2023-05-07T12:58:19;2.03;;;1.83;;
25982;SDS011;13773;48.868;10.730;2023-05-07T13:00:49;3.47;;;1.60;;
25982;SDS011;13773;48.868;10.730;2023-05-07T13:03:22;1.90;;;1.70;;
25982;SDS011;13773;48.868;10.730;2023-05-07T13:05:52;1.70;;;1.60;;
25982;SDS011;13773;48.868;10.730;2023-05-07T13:08:23;1.75;;;1.60;;
25982;SDS011;13773;48.868;10.730;2023-05-07T13:10:57;1.90;;;1.63;;
25982;SDS011;13773;48.868;10.730;2023-05-07T13:13:24;2.85;;;1.70;;
25982;SDS011;13773;48.868;10.730;2023-05-07T13:15:50;1.85;;;1.75;;
25982;SDS011;13773;48.868;10.730;2023-05-07T13:18:17;2.03;;;1.60;;
25982;SDS011;13773;48.868;10.730;2023-05-07T13:20:42;1.60;;;1.50;;
25982;SDS011;13773;48.868;10.730;2023-05-07T13:23:08;1.65;;;1.55;;
25982;SDS011;13773;48.868;10.730;2023-05-07T13:25:34;1.63;;;1.52;;
25982;SDS011;13773;48.868;10.730;2023-05-07T13:28:00;2.70;;;1.80;;
25982;SDS011;13773;48.868;10.730;2023-05-07T13:30:25;1.60;;;1.50;;
25982;SDS011;13773;48.868;10.730;2023-05-07T13:32:53;1.90;;;1.80;;
25982;SDS011;13773;48.868;10.730;2023-05-07T13:35:21;4.17;;;1.50;;
25982;SDS011;13773;48.868;10.730;2023-05-07T13:37:47;1.70;;;1.60;;
25982;SDS011;13773;48.868;10.730;2023-05-07T13:40:17;2.40;;;1.50;;
25982;SDS011;13773;48.868;10.730;2023-05-07T13:42:43;2.67;;;1.90;;
25982;SDS011;13773;48.868;10.730;2023-05-07T13:45:09;3.67;;;1.93;;
25982;SDS011;13773;48.868;10.730;2023-05-07T13:47:35;3.00;;;1.97;;
25982;SDS011;13773;48.868;10.730;2023-05-07T13:50:00;2.37;;;1.70;;
25982;SDS011;13773;48.868;10.730;2023-05-07T13:52:26;2.05;;;1.70;;
25982;SDS011;13773;48.868;10.730;2023-05-07T13:54:52;2.35;;;1.83;;
25982;SDS011;13773;48.868;10.730;2023-05-07T13:57:18;2.00;;;1.70;;
25982;SDS011;13773;48.868;10.730;2023-05-07T13:59:43;2.37;;;2.00;;
25982;SDS011;13773;48.868;10.730;2023-05-07T14:02:09;1.53;;;1.43;;
25982;SDS011;13773;48.868;10.730;2023-05-07T14:04:35;2.42;;;1.63;;
25982;SDS011;13773;48.868;10.730;2023-05-07T14:07:02;2.07;;;1.77;;
25982;SDS011;13773;48.868;10.730;2023-05-07T14:09:28;1.67;;;1.57;;
25982;SDS011;13773;48.868;10.730;2023-05-07T14:11:54;1.80;;;1.70;;
25982;SDS011;13773;48.868;10.730;2023-05-07T14:14:20;1.97;;;1.47;;
25982;SDS011;13773;48.868;10.730;2023-05-07T14:16:45;2.07;;;1.80;;
25982;SDS011;13773;48.868;10.730;2023-05-07T14:19:11;1.90;;;1.80;;
25982;SDS011;13773;48.868;10.730;2023-05-07T14:21:37;1.80;;;1.70;;
25982;SDS011;13773;48.868;10.730;2023-05-07T14:24:03;2.80;;;1.40;;
25982;SDS011;13773;48.868;10.730;2023-05-07T14:26:32;1.70;;;1.60;;
25982;SDS011;13773;48.868;10.730;2023-05-07T14:28:58;3.13;;;1.70;;
25982;SDS011;13773;48.868;10.730;2023-05-07T14:31:24;3.30;;;1.63;;
25982;SDS011;13773;48.868;10.730;2023-05-07T14:33:50;1.73;;;1.57;;
25982;SDS011;13773;48.868;10.730;2023-05-07T14:36:17;2.17;;;1.60;;
25982;SDS011;13773;48.868;10.730;2023-05-07T14:38:45;2.25;;;1.50;;
25982;SDS011;13773;48.868;10.730;2023-05-07T14:41:11;2.30;;;1.60;;
25982;SDS011;13773;48.868;10.730;2023-05-07T14:43:37;1.38;;;1.27;;
25982;SDS011;13773;48.868;10.730;2023-05-07T14:46:02;1.88;;;1.77;;
25982;SDS011;13773;48.868;10.730;2023-05-07T14:48:28;2.30;;;1.60;;